sensor_id;sensor_type;location;lat;lon;timestamp;pressure;altitude;pressure_sealevel;temperature;humidity
26112;BME280;13829;48.990;8.346;2023-05-21T00:01:03;100107.72;;;17.02;95.15
26112;BME280;13829;48.990;8.346;2023-05-21T00:03:32;100106.59;;;17.11;95.14
26112;BME280;13829;48.990;8.346;2023-05-21T00:06:00;100111.38;;;16.98;95.55
26112;BME280;13829;48.990;8.346;2023-05-21T00:08:28;100111.53;;;16.92;96.64
26112;BME280;13829;48.990;8.346;2023-05-21T00:10:55;100106.34;;;16.86;96.83
26112;BME280;13829;48.990;8.346;2023-05-21T00:13:22;100108.81;;;16.95;96.53
26112;BME280;13829;48.990;8.346;2023-05-21T00:15:49;100106.44;;;16.83;97.37
26112;BME280;13829;48.990;8.346;2023-05-21T00:18:16;100109.28;;;16.75;98.05
26112;BME280;13829;48.990;8.346;2023-05-21T00:20:44;100104.69;;;16.82;97.38
26112;BME280;13829;48.990;8.346;2023-05-21T00:23:12;100105.44;;;16.87;97.43
26112;BME280;13829;48.990;8.346;2023-05-21T00:25:43;100102.66;;;16.93;96.39
26112;BME280;13829;48.990;8.346;2023-05-21T00:28:11;100095.53;;;16.95;96.81
26112;BME280;13829;48.990;8.346;2023-05-21T00:30:38;100090.03;;;17.01;96.53
26112;BME280;13829;48.990;8.346;2023-05-21T00:33:05;100093.69;;;16.97;96.24
26112;BME280;13829;48.990;8.346;2023-05-21T00:35:35;100083.53;;;16.78;97.62
26112;BME280;13829;48.990;8.346;2023-05-21T00:38:03;100081.22;;;16.65;99.06
26112;BME280;13829;48.990;8.346;2023-05-21T00:40:32;100082.31;;;16.92;97.59
26112;BME280;13829;48.990;8.346;2023-05-21T00:43:00;100077.84;;;16.94;96.91
26112;BME280;13829;48.990;8.346;2023-05-21T00:45:27;100072.81;;;16.82;97.45
26112;BME280;13829;48.990;8.346;2023-05-21T00:47:54;100067.28;;;16.91;97.48
26112;BME280;13829;48.990;8.346;2023-05-21T00:50:22;100067.94;;;16.65;98.59
26112;BME280;13829;48.990;8.346;2023-05-21T00:52:49;100067.50;;;16.82;98.65
26112;BME280;13829;48.990;8.346;2023-05-21T00:55:17;100063.53;;;16.63;99.17
26112;BME280;13829;48.990;8.346;2023-05-21T00:57:44;100067.00;;;16.66;99.55
26112;BME280;13829;48.990;8.346;2023-05-21T01:00:14;100053.81;;;16.62;100.00
26112;BME280;13829;48.990;8.346;2023-05-21T01:02:41;100058.78;;;16.42;100.00
26112;BME280;13829;48.990;8.346;2023-05-21T01:05:09;100056.53;;;16.61;100.00
26112;BME280;13829;48.990;8.346;2023-05-21T01:07:39;100055.69;;;16.59;100.00
26112;BME280;13829;48.990;8.346;2023-05-21T01:10:10;100054.69;;;16.63;99.49
26112;BME280;13829;48.990;8.346;2023-05-21T01:12:41;100054.19;;;16.49;100.00
26112;BME280;13829;48.990;8.346;2023-05-21T01:15:10;100051.28;;;16.58;100.00
26112;BME280;13829;48.990;8.346;2023-05-21T01:17:38;100047.13;;;16.47;100.00
26112;BME280;13829;48.990;8.346;2023-05-21T01:20:07;100057.97;;;16.38;100.00
26112;BME280;13829;48.990;8.346;2023-05-21T01:22:37;100047.13;;;16.47;100.00
26112;BME280;13829;48.990;8.346;2023-05-21T01:25:09;100045.16;;;16.56;100.00
26112;BME280;13829;48.990;8.346;2023-05-21T01:27:36;100044.50;;;16.46;100.00
26112;BME280;13829;48.990;8.346;2023-05-21T01:30:04;100041.06;;;16.42;100.00
26112;BME280;13829;48.990;8.346;2023-05-21T01:32:39;100048.97;;;16.45;100.00
26112;BME280;13829;48.990;8.346;2023-05-21T01:35:12;100047.25;;;16.41;100.00
26112;BME280;13829;48.990;8.346;2023-05-21T01:37:48;100047.66;;;16.26;100.00
26112;BME280;13829;48.990;8.346;2023-05-21T01:40:25;100042.38;;;16.24;100.00
26112;BME280;13829;48.990;8.346;2023-05-21T01:42:56;100051.25;;;16.23;100.00
26112;BME280;13829;48.990;8.346;2023-05-21T01:45:26;100044.84;;;16.32;100.00
26112;BME280;13829;48.990;8.346;2023-05-21T01:47:55;100047.59;;;16.29;100.00
26112;BME280;13829;48.990;8.346;2023-05-21T01:50:23;100045.81;;;16.29;100.00
26112;BME280;13829;48.990;8.346;2023-05-21T01:52:52;100042.94;;;16.37;100.00
26112;BME280;13829;48.990;8.346;2023-05-21T01:55:21;100049.91;;;16.41;100.00
26112;BME280;13829;48.990;8.346;2023-05-21T01:57:49;100042.19;;;16.32;100.00
26112;BME280;13829;48.990;8.346;2023-05-21T02:00:17;100037.91;;;16.26;100.00
26112;BME280;13829;48.990;8.346;2023-05-21T02:02:44;100026.56;;;16.20;100.00
26112;BME280;13829;48.990;8.346;2023-05-21T02:05:11;100033.63;;;16.21;100.00
26112;BME280;13829;48.990;8.346;2023-05-21T02:07:38;100024.81;;;16.19;100.00
26112;BME280;13829;48.990;8.346;2023-05-21T02:10:07;100023.09;;;16.18;100.00
26112;BME280;13829;48.990;8.346;2023-05-21T02:12:35;100038.13;;;16.17;100.00
26112;BME280;13829;48.990;8.346;2023-05-21T02:15:04;100029.38;;;16.13;100.00
26112;BME280;13829;48.990;8.346;2023-05-21T02:17:31;100025.13;;;16.06;100.00
26112;BME280;13829;48.990;8.346;2023-05-21T02:19:58;100021.22;;;16.23;100.00
26112;BME280;13829;48.990;8.346;2023-05-21T02:22:33;100030.50;;;16.03;100.00
26112;BME280;13829;48.990;8.346;2023-05-21T02:24:59;100029.69;;;16.00;100.00
26112;BME280;13829;48.990;8.346;2023-05-21T02:27:26;100018.13;;;16.04;100.00
26112;BME280;13829;48.990;8.346;2023-05-21T02:29:57;100025.13;;;16.06;100.00
26112;BME280;13829;48.990;8.346;2023-05-21T02:32:24;100022.63;;;16.00;100.00
26112;BME280;13829;48.990;8.346;2023-05-21T02:34:51;100023.16;;;16.14;100.00
26112;BME280;13829;48.990;8.346;2023-05-21T02:37:18;100017.00;;;16.12;100.00
26112;BME280;13829;48.990;8.346;2023-05-21T02:39:45;100014.91;;;15.89;100.00
26112;BME280;13829;48.990;8.346;2023-05-21T02:42:12;100014.22;;;15.79;100.00
26112;BME280;13829;48.990;8.346;2023-05-21T02:44:39;100012.59;;;15.74;100.00
26112;BME280;13829;48.990;8.346;2023-05-21T02:47:07;100009.03;;;15.75;100.00
26112;BME280;13829;48.990;8.346;2023-05-21T02:49:34;100013.63;;;15.66;100.00
26112;BME280;13829;48.990;8.346;2023-05-21T02:52:02;100012.72;;;15.68;100.00
26112;BME280;13829;48.990;8.346;2023-05-21T02:54:28;100007.38;;;15.71;100.00
26112;BME280;13829;48.990;8.346;2023-05-21T02:56:55;100004.22;;;15.52;100.00
26112;BME280;13829;48.990;8.346;2023-05-21T02:59:22;100006.13;;;15.45;100.00
26112;BME280;13829;48.990;8.346;2023-05-21T03:01:49;100003.53;;;15.43;100.00
26112;BME280;13829;48.990;8.346;2023-05-21T03:04:18;100003.53;;;15.43;100.00
26112;BME280;13829;48.990;8.346;2023-05-21T03:06:46;100008.97;;;15.37;100.00
26112;BME280;13829;48.990;8.346;2023-05-21T03:09:13;100000.31;;;15.27;100.00
26112;BME280;13829;48.990;8.346;2023-05-21T03:11:42;100003.78;;;15.31;100.00
26112;BME280;13829;48.990;8.346;2023-05-21T03:14:09;99996.94;;;15.21;100.00
26112;BME280;13829;48.990;8.346;2023-05-21T03:16:36;100003.09;;;15.23;100.00
26112;BME280;13829;48.990;8.346;2023-05-21T03:19:06;99994.38;;;15.16;100.00
26112;BME280;13829;48.990;8.346;2023-05-21T03:21:34;100003.66;;;15.37;100.00
26112;BME280;13829;48.990;8.346;2023-05-21T03:24:03;100002.22;;;15.21;100.00
26112;BME280;13829;48.990;8.346;2023-05-21T03:26:31;100002.44;;;15.11;100.00
26112;BME280;13829;48.990;8.346;2023-05-21T03:28:58;99997.00;;;15.18;100.00
26112;BME280;13829;48.990;8.346;2023-05-21T03:31:26;99995.44;;;15.09;100.00
26112;BME280;13829;48.990;8.346;2023-05-21T03:33:53;99994.59;;;15.05;100.00
26112;BME280;13829;48.990;8.346;2023-05-21T03:36:20;100000.88;;;15.01;100.00
26112;BME280;13829;48.990;8.346;2023-05-21T03:38:48;99999.16;;;14.97;100.00
26112;BME280;13829;48.990;8.346;2023-05-21T03:41:15;99998.22;;;15.01;100.00
26112;BME280;13829;48.990;8.346;2023-05-21T03:43:42;99998.44;;;14.90;100.00
26112;BME280;13829;48.990;8.346;2023-05-21T03:46:09;99999.41;;;14.84;100.00
26112;BME280;13829;48.990;8.346;2023-05-21T03:48:36;100000.06;;;14.96;100.00
26112;BME280;13829;48.990;8.346;2023-05-21T03:51:03;100004.31;;;15.06;100.00
26112;BME280;13829;48.990;8.346;2023-05-21T03:53:33;100011.50;;;14.98;100.00
26112;BME280;13829;48.990;8.346;2023-05-21T03:56:01;100009.75;;;14.97;100.00
26112;BME280;13829;48.990;8.346;2023-05-21T03:58:29;100010.66;;;14.96;100.00
26112;BME280;13829;48.990;8.346;2023-05-21T04:00:56;100011.28;;;15.10;100.00
26112;BME280;13829;48.990;8.346;2023-05-21T04:03:23;100023.53;;;15.14;100.00
26112;BME280;13829;48.990;8.346;2023-05-21T04:05:50;100023.66;;;15.08;100.00
26112;BME280;13829;48.990;8.346;2023-05-21T04:08:17;100026.44;;;15.04;100.00
26112;BME280;13829;48.990;8.346;2023-05-21T04:10:44;100030.09;;;14.96;100.00
26112;BME280;13829;48.990;8.346;2023-05-21T04:13:12;100030.94;;;14.97;100.00
26112;BME280;13829;48.990;8.346;2023-05-21T04:15:39;100027.25;;;15.06;100.00
26112;BME280;13829;48.990;8.346;2023-05-21T04:18:08;100032.47;;;15.10;100.00
26112;BME280;13829;48.990;8.346;2023-05-21T04:20:35;100031.56;;;15.10;100.00
26112;BME280;13829;48.990;8.346;2023-05-21T04:23:02;100035.28;;;15.03;100.00
26112;BME280;13829;48.990;8.346;2023-05-21T04:25:29;100029.69;;;15.16;100.00
26112;BME280;13829;48.990;8.346;2023-05-21T04:27:56;100028.84;;;15.14;100.00
26112;BME280;13829;48.990;8.346;2023-05-21T04:30:24;100032.94;;;15.31;100.00
26112;BME280;13829;48.990;8.346;2023-05-21T04:32:51;100042.75;;;15.26;100.00
26112;BME280;13829;48.990;8.346;2023-05-21T04:35:19;100042.81;;;15.23;100.00
26112;BME280;13829;48.990;8.346;2023-05-21T04:37:47;100044.44;;;15.30;100.00
26112;BME280;13829;48.990;8.346;2023-05-21T04:40:15;100039.31;;;15.21;100.00
26112;BME280;13829;48.990;8.346;2023-05-21T04:42:43;100041.13;;;15.19;100.00
26112;BME280;13829;48.990;8.346;2023-05-21T04:45:11;100043.59;;;15.26;100.00
26112;BME280;13829;48.990;8.346;2023-05-21T04:47:41;100040.84;;;15.34;100.00
26112;BME280;13829;48.990;8.346;2023-05-21T04:50:09;100048.69;;;15.37;100.00
26112;BME280;13829;48.990;8.346;2023-05-21T04:52:37;100038.75;;;15.48;100.00
26112;BME280;13829;48.990;8.346;2023-05-21T04:55:06;100042.13;;;15.55;100.00
26112;BME280;13829;48.990;8.346;2023-05-21T04:57:33;100041.28;;;15.55;100.00
26112;BME280;13829;48.990;8.346;2023-05-21T05:00:00;100046.16;;;15.75;100.00
26112;BME280;13829;48.990;8.346;2023-05-21T05:02:28;100051.31;;;15.81;100.00
26112;BME280;13829;48.990;8.346;2023-05-21T05:04:56;100060.31;;;16.14;100.00
26112;BME280;13829;48.990;8.346;2023-05-21T05:07:24;100049.47;;;16.24;100.00
26112;BME280;13829;48.990;8.346;2023-05-21T05:09:51;100055.88;;;16.51;100.00
26112;BME280;13829;48.990;8.346;2023-05-21T05:12:18;100055.69;;;16.59;100.00
26112;BME280;13829;48.990;8.346;2023-05-21T05:14:45;100054.22;;;16.82;100.00
26112;BME280;13829;48.990;8.346;2023-05-21T05:17:12;100055.13;;;16.80;100.00
26112;BME280;13829;48.990;8.346;2023-05-21T05:19:40;100058.06;;;17.04;100.00
26112;BME280;13829;48.990;8.346;2023-05-21T05:22:09;100051.06;;;17.33;99.00
26112;BME280;13829;48.990;8.346;2023-05-21T05:24:36;100052.66;;;17.39;97.25
26112;BME280;13829;48.990;8.346;2023-05-21T05:27:03;100058.22;;;17.31;97.19
26112;BME280;13829;48.990;8.346;2023-05-21T05:29:30;100049.59;;;17.53;96.84
26112;BME280;13829;48.990;8.346;2023-05-21T05:31:57;100045.19;;;17.53;96.38
26112;BME280;13829;48.990;8.346;2023-05-21T05:34:24;100046.97;;;17.83;94.62
26112;BME280;13829;48.990;8.346;2023-05-21T05:36:51;100041.94;;;17.73;93.96
26112;BME280;13829;48.990;8.346;2023-05-21T05:39:19;100044.38;;;17.80;95.63
26112;BME280;13829;48.990;8.346;2023-05-21T05:41:46;100041.84;;;18.05;92.88
26112;BME280;13829;48.990;8.346;2023-05-21T05:44:13;100051.34;;;18.14;90.69
26112;BME280;13829;48.990;8.346;2023-05-21T05:46:40;100046.97;;;18.39;89.00
26112;BME280;13829;48.990;8.346;2023-05-21T05:49:07;100046.44;;;18.55;88.93
26112;BME280;13829;48.990;8.346;2023-05-21T05:51:34;100042.19;;;18.49;88.74
26112;BME280;13829;48.990;8.346;2023-05-21T05:54:01;100042.03;;;18.27;89.10
26112;BME280;13829;48.990;8.346;2023-05-21T05:56:30;100042.63;;;18.08;90.44
26112;BME280;13829;48.990;8.346;2023-05-21T05:58:57;100043.75;;;18.01;91.52
26112;BME280;13829;48.990;8.346;2023-05-21T06:01:24;100039.91;;;18.10;92.12
26112;BME280;13829;48.990;8.346;2023-05-21T06:03:51;100036.00;;;18.49;89.58
26112;BME280;13829;48.990;8.346;2023-05-21T06:06:18;100039.50;;;18.51;88.83
26112;BME280;13829;48.990;8.346;2023-05-21T06:08:45;100043.97;;;18.75;87.14
26112;BME280;13829;48.990;8.346;2023-05-21T06:11:12;100052.44;;;18.87;85.95
26112;BME280;13829;48.990;8.346;2023-05-21T06:13:43;100044.88;;;18.74;87.84
26112;BME280;13829;48.990;8.346;2023-05-21T06:16:10;100044.63;;;18.57;87.22
26112;BME280;13829;48.990;8.346;2023-05-21T06:18:37;100047.63;;;18.46;88.68
26112;BME280;13829;48.990;8.346;2023-05-21T06:21:04;100047.31;;;18.55;87.69
26112;BME280;13829;48.990;8.346;2023-05-21T06:23:31;100051.72;;;18.30;89.48
26112;BME280;13829;48.990;8.346;2023-05-21T06:26:00;100049.41;;;18.72;88.06
26112;BME280;13829;48.990;8.346;2023-05-21T06:28:27;100049.19;;;18.52;88.45
26112;BME280;13829;48.990;8.346;2023-05-21T06:30:55;100057.09;;;18.55;87.92
26112;BME280;13829;48.990;8.346;2023-05-21T06:33:22;100048.53;;;18.72;87.24
26112;BME280;13829;48.990;8.346;2023-05-21T06:35:49;100053.34;;;19.13;86.18
26112;BME280;13829;48.990;8.346;2023-05-21T06:38:16;100054.28;;;19.35;84.30
26112;BME280;13829;48.990;8.346;2023-05-21T06:40:42;100060.34;;;19.64;82.33
26112;BME280;13829;48.990;8.346;2023-05-21T06:43:12;100052.31;;;19.40;82.20
26112;BME280;13829;48.990;8.346;2023-05-21T06:45:39;100046.06;;;19.65;81.43
26112;BME280;13829;48.990;8.346;2023-05-21T06:48:07;100051.22;;;19.94;79.95
26112;BME280;13829;48.990;8.346;2023-05-21T06:50:34;100046.38;;;20.48;77.05
26112;BME280;13829;48.990;8.346;2023-05-21T06:53:02;100050.56;;;20.76;74.73
26112;BME280;13829;48.990;8.346;2023-05-21T06:55:29;100048.13;;;21.31;72.80
26112;BME280;13829;48.990;8.346;2023-05-21T06:57:56;100043.81;;;22.05;71.18
26112;BME280;13829;48.990;8.346;2023-05-21T07:00:24;100039.06;;;22.12;66.84
26112;BME280;13829;48.990;8.346;2023-05-21T07:02:50;100039.91;;;22.12;68.00
26112;BME280;13829;48.990;8.346;2023-05-21T07:05:19;100046.22;;;22.48;65.37
26112;BME280;13829;48.990;8.346;2023-05-21T07:07:46;100045.13;;;23.05;62.11
26112;BME280;13829;48.990;8.346;2023-05-21T07:10:13;100040.16;;;23.15;62.12
26112;BME280;13829;48.990;8.346;2023-05-21T07:12:40;100044.78;;;23.78;58.65
26112;BME280;13829;48.990;8.346;2023-05-21T07:15:08;100039.19;;;23.99;58.87
26112;BME280;13829;48.990;8.346;2023-05-21T07:17:35;100046.69;;;24.24;57.64
26112;BME280;13829;48.990;8.346;2023-05-21T07:20:02;100042.56;;;24.18;57.20
26112;BME280;13829;48.990;8.346;2023-05-21T07:22:32;100040.72;;;24.19;57.24
26112;BME280;13829;48.990;8.346;2023-05-21T07:24:59;100048.09;;;24.15;55.92
26112;BME280;13829;48.990;8.346;2023-05-21T07:27:26;100038.03;;;24.19;56.21
26112;BME280;13829;48.990;8.346;2023-05-21T07:29:53;100041.81;;;24.31;55.54
26112;BME280;13829;48.990;8.346;2023-05-21T07:32:19;100030.66;;;24.22;55.60
26112;BME280;13829;48.990;8.346;2023-05-21T07:34:46;100030.22;;;24.61;54.16
26112;BME280;13829;48.990;8.346;2023-05-21T07:37:13;100036.81;;;24.24;55.66
26112;BME280;13829;48.990;8.346;2023-05-21T07:39:42;100035.13;;;24.84;53.43
26112;BME280;13829;48.990;8.346;2023-05-21T07:42:08;100021.91;;;25.53;50.79
26112;BME280;13829;48.990;8.346;2023-05-21T07:44:35;100031.06;;;24.31;54.26
26112;BME280;13829;48.990;8.346;2023-05-21T07:47:03;100029.03;;;24.20;54.82
26112;BME280;13829;48.990;8.346;2023-05-21T07:49:30;100017.50;;;24.18;55.24
26112;BME280;13829;48.990;8.346;2023-05-21T07:51:57;100026.63;;;23.99;54.86
26112;BME280;13829;48.990;8.346;2023-05-21T07:54:24;100025.09;;;23.12;59.08
26112;BME280;13829;48.990;8.346;2023-05-21T07:56:52;100024.16;;;22.95;59.98
26112;BME280;13829;48.990;8.346;2023-05-21T07:59:19;100016.44;;;22.72;60.47
26112;BME280;13829;48.990;8.346;2023-05-21T08:01:46;100014.50;;;23.09;60.57
26112;BME280;13829;48.990;8.346;2023-05-21T08:04:13;100016.25;;;23.10;58.68
26112;BME280;13829;48.990;8.346;2023-05-21T08:06:40;100025.19;;;22.75;61.30
26112;BME280;13829;48.990;8.346;2023-05-21T08:09:07;100020.97;;;22.35;62.03
26112;BME280;13829;48.990;8.346;2023-05-21T08:11:34;100025.38;;;22.36;63.14
26112;BME280;13829;48.990;8.346;2023-05-21T08:14:02;100016.88;;;22.27;62.10
26112;BME280;13829;48.990;8.346;2023-05-21T08:16:29;100019.44;;;22.48;62.35
26112;BME280;13829;48.990;8.346;2023-05-21T08:18:56;100011.56;;;22.62;61.82
26112;BME280;13829;48.990;8.346;2023-05-21T08:21:23;100021.63;;;22.75;61.19
26112;BME280;13829;48.990;8.346;2023-05-21T08:23:51;100016.59;;;22.69;61.91
26112;BME280;13829;48.990;8.346;2023-05-21T08:26:18;100024.88;;;22.10;63.42
26112;BME280;13829;48.990;8.346;2023-05-21T08:28:46;100023.38;;;22.04;64.20
26112;BME280;13829;48.990;8.346;2023-05-21T08:31:16;100023.53;;;21.82;65.21
26112;BME280;13829;48.990;8.346;2023-05-21T08:33:49;100023.03;;;21.93;64.84
26112;BME280;13829;48.990;8.346;2023-05-21T08:36:17;100022.94;;;21.94;64.38
26112;BME280;13829;48.990;8.346;2023-05-21T08:38:44;100021.03;;;21.79;65.17
26112;BME280;13829;48.990;8.346;2023-05-21T08:41:11;100020.28;;;21.56;65.52
26112;BME280;13829;48.990;8.346;2023-05-21T08:43:39;100023.56;;;21.23;67.02
26112;BME280;13829;48.990;8.346;2023-05-21T08:46:08;100017.63;;;21.55;68.05
26112;BME280;13829;48.990;8.346;2023-05-21T08:48:37;100020.38;;;21.74;66.15
26112;BME280;13829;48.990;8.346;2023-05-21T08:51:05;100015.50;;;21.82;66.05
26112;BME280;13829;48.990;8.346;2023-05-21T08:53:32;100015.00;;;21.93;65.80
26112;BME280;13829;48.990;8.346;2023-05-21T08:56:00;100017.97;;;21.87;65.12
26112;BME280;13829;48.990;8.346;2023-05-21T08:58:31;100022.09;;;22.11;65.15
26112;BME280;13829;48.990;8.346;2023-05-21T09:00:58;100017.78;;;22.09;65.00
26112;BME280;13829;48.990;8.346;2023-05-21T09:03:26;100023.63;;;22.17;64.53
26112;BME280;13829;48.990;8.346;2023-05-21T09:05:55;100019.59;;;22.45;63.86
26112;BME280;13829;48.990;8.346;2023-05-21T09:08:30;100019.59;;;22.45;63.90
26112;BME280;13829;48.990;8.346;2023-05-21T09:10:57;100026.69;;;22.46;64.22
26112;BME280;13829;48.990;8.346;2023-05-21T09:13:26;100019.56;;;22.80;62.87
26112;BME280;13829;48.990;8.346;2023-05-21T09:15:54;100012.00;;;23.23;61.24
26112;BME280;13829;48.990;8.346;2023-05-21T09:18:21;100018.41;;;23.37;57.61
26112;BME280;13829;48.990;8.346;2023-05-21T09:20:48;100014.38;;;23.61;56.85
26112;BME280;13829;48.990;8.346;2023-05-21T09:23:18;100010.28;;;23.54;57.05
26112;BME280;13829;48.990;8.346;2023-05-21T09:25:47;100013.44;;;23.63;55.46
26112;BME280;13829;48.990;8.346;2023-05-21T09:28:18;100014.13;;;23.82;56.20
26112;BME280;13829;48.990;8.346;2023-05-21T09:30:46;100017.75;;;23.81;55.12
26112;BME280;13829;48.990;8.346;2023-05-21T09:33:24;100022.94;;;23.68;55.57
26112;BME280;13829;48.990;8.346;2023-05-21T09:35:51;100029.53;;;23.78;57.32
26112;BME280;13829;48.990;8.346;2023-05-21T09:38:21;100017.25;;;23.90;55.94
26112;BME280;13829;48.990;8.346;2023-05-21T09:40:49;100018.47;;;24.01;53.68
26112;BME280;13829;48.990;8.346;2023-05-21T09:43:16;100020.56;;;23.96;54.87
26112;BME280;13829;48.990;8.346;2023-05-21T09:45:50;100024.25;;;24.09;54.92
26112;BME280;13829;48.990;8.346;2023-05-21T09:48:32;100011.97;;;24.05;54.87
26112;BME280;13829;48.990;8.346;2023-05-21T09:51:08;100015.84;;;24.15;55.75
26112;BME280;13829;48.990;8.346;2023-05-21T09:53:43;100021.16;;;24.01;56.53
26112;BME280;13829;48.990;8.346;2023-05-21T09:56:14;100017.41;;;23.87;56.49
26112;BME280;13829;48.990;8.346;2023-05-21T09:58:41;100024.59;;;23.71;56.36
26112;BME280;13829;48.990;8.346;2023-05-21T10:01:09;100025.53;;;23.70;57.25
26112;BME280;13829;48.990;8.346;2023-05-21T10:03:38;100019.69;;;23.95;58.82
26112;BME280;13829;48.990;8.346;2023-05-21T10:06:07;100009.53;;;24.16;58.94
26112;BME280;13829;48.990;8.346;2023-05-21T10:08:40;100006.28;;;24.25;57.36
26112;BME280;13829;48.990;8.346;2023-05-21T10:11:10;100011.44;;;24.45;56.68
26112;BME280;13829;48.990;8.346;2023-05-21T10:13:44;100014.84;;;24.02;56.53
26112;BME280;13829;48.990;8.346;2023-05-21T10:16:14;100004.06;;;23.70;57.51
26112;BME280;13829;48.990;8.346;2023-05-21T10:18:43;100010.38;;;23.85;58.11
26112;BME280;13829;48.990;8.346;2023-05-21T10:21:11;100014.50;;;23.92;57.10
26112;BME280;13829;48.990;8.346;2023-05-21T10:23:41;100010.81;;;23.77;56.30
26112;BME280;13829;48.990;8.346;2023-05-21T10:26:10;100008.09;;;23.94;56.52
26112;BME280;13829;48.990;8.346;2023-05-21T10:28:38;100007.44;;;24.05;55.22
26112;BME280;13829;48.990;8.346;2023-05-21T10:31:06;100003.56;;;24.11;56.45
26112;BME280;13829;48.990;8.346;2023-05-21T10:33:34;100008.28;;;24.22;56.34
26112;BME280;13829;48.990;8.346;2023-05-21T10:36:04;99995.59;;;23.93;56.33
26112;BME280;13829;48.990;8.346;2023-05-21T10:38:33;99993.53;;;23.99;55.98
26112;BME280;13829;48.990;8.346;2023-05-21T10:41:03;99993.16;;;24.21;55.82
26112;BME280;13829;48.990;8.346;2023-05-21T10:43:46;99994.72;;;24.09;56.38
26112;BME280;13829;48.990;8.346;2023-05-21T10:46:55;99998.09;;;24.43;56.37
26112;BME280;13829;48.990;8.346;2023-05-21T10:49:45;99984.22;;;24.20;55.71
26112;BME280;13829;48.990;8.346;2023-05-21T10:52:43;99978.47;;;24.26;55.97
26112;BME280;13829;48.990;8.346;2023-05-21T10:55:41;99981.16;;;24.26;55.74
26112;BME280;13829;48.990;8.346;2023-05-21T11:01:18;99991.06;;;24.10;56.03
26112;BME280;13829;48.990;8.346;2023-05-21T11:03:46;99991.44;;;24.04;55.25
26112;BME280;13829;48.990;8.346;2023-05-21T11:06:22;99989.19;;;24.12;56.05
26112;BME280;13829;48.990;8.346;2023-05-21T11:08:50;99982.69;;;24.31;56.25
26112;BME280;13829;48.990;8.346;2023-05-21T11:11:40;99991.16;;;24.08;57.01
26112;BME280;13829;48.990;8.346;2023-05-21T11:14:32;99996.94;;;24.33;56.42
26112;BME280;13829;48.990;8.346;2023-05-21T11:17:02;99992.25;;;24.36;55.59
26112;BME280;13829;48.990;8.346;2023-05-21T11:19:38;99989.25;;;24.41;55.51
26112;BME280;13829;48.990;8.346;2023-05-21T11:22:07;99983.22;;;24.68;55.98
26112;BME280;13829;48.990;8.346;2023-05-21T11:24:39;99982.88;;;24.74;53.81
26112;BME280;13829;48.990;8.346;2023-05-21T11:27:07;99975.19;;;24.82;55.03
26112;BME280;13829;48.990;8.346;2023-05-21T11:29:43;99973.84;;;24.89;53.74
26112;BME280;13829;48.990;8.346;2023-05-21T11:32:13;99978.94;;;24.64;52.07
26112;BME280;13829;48.990;8.346;2023-05-21T11:34:44;99983.94;;;24.55;52.64
26112;BME280;13829;48.990;8.346;2023-05-21T11:37:30;99985.69;;;24.56;52.65
26112;BME280;13829;48.990;8.346;2023-05-21T11:40:23;99973.75;;;24.46;51.28
26112;BME280;13829;48.990;8.346;2023-05-21T11:42:53;99983.88;;;24.41;50.45
26112;BME280;13829;48.990;8.346;2023-05-21T11:45:26;99981.41;;;24.68;51.34
26112;BME280;13829;48.990;8.346;2023-05-21T11:47:54;99983.81;;;24.73;50.77
26112;BME280;13829;48.990;8.346;2023-05-21T11:50:22;99990.53;;;24.80;50.26
26112;BME280;13829;48.990;8.346;2023-05-21T11:52:49;99987.63;;;24.69;48.85
26112;BME280;13829;48.990;8.346;2023-05-21T11:55:21;99973.28;;;24.84;48.21
26112;BME280;13829;48.990;8.346;2023-05-21T11:57:52;99979.75;;;24.66;48.33
26112;BME280;13829;48.990;8.346;2023-05-21T12:00:21;99975.38;;;24.79;48.45
26112;BME280;13829;48.990;8.346;2023-05-21T12:02:50;99974.78;;;25.03;47.85
26112;BME280;13829;48.990;8.346;2023-05-21T12:05:18;99980.84;;;25.06;48.59
26112;BME280;13829;48.990;8.346;2023-05-21T12:07:48;99990.94;;;25.03;47.75
26112;BME280;13829;48.990;8.346;2023-05-21T12:10:15;99979.41;;;24.86;48.00
26112;BME280;13829;48.990;8.346;2023-05-21T12:12:46;99981.22;;;25.00;48.25
26112;BME280;13829;48.990;8.346;2023-05-21T12:15:13;99979.03;;;24.92;48.93
26112;BME280;13829;48.990;8.346;2023-05-21T12:17:41;99978.34;;;25.18;49.50
26112;BME280;13829;48.990;8.346;2023-05-21T12:20:13;99973.19;;;25.15;49.67
26112;BME280;13829;48.990;8.346;2023-05-21T12:22:41;99976.72;;;25.30;49.36
26112;BME280;13829;48.990;8.346;2023-05-21T12:25:09;99971.06;;;25.20;49.89
26112;BME280;13829;48.990;8.346;2023-05-21T12:27:37;99975.00;;;25.43;49.95
26112;BME280;13829;48.990;8.346;2023-05-21T12:30:06;99966.75;;;25.46;49.77
26112;BME280;13829;48.990;8.346;2023-05-21T12:32:33;99969.22;;;25.35;50.96
26112;BME280;13829;48.990;8.346;2023-05-21T12:35:05;99970.69;;;25.40;51.25
26112;BME280;13829;48.990;8.346;2023-05-21T12:37:32;99965.41;;;25.39;51.33
26112;BME280;13829;48.990;8.346;2023-05-21T12:40:03;99971.53;;;25.27;50.00
26112;BME280;13829;48.990;8.346;2023-05-21T12:42:32;99972.31;;;25.43;50.53
26112;BME280;13829;48.990;8.346;2023-05-21T12:45:05;99967.38;;;25.50;49.74
26112;BME280;13829;48.990;8.346;2023-05-21T12:47:32;99968.28;;;25.50;48.83
26112;BME280;13829;48.990;8.346;2023-05-21T12:50:01;99973.66;;;25.50;48.73
26112;BME280;13829;48.990;8.346;2023-05-21T12:52:29;99970.84;;;25.52;49.24
26112;BME280;13829;48.990;8.346;2023-05-21T12:54:57;99975.25;;;25.67;49.17
26112;BME280;13829;48.990;8.346;2023-05-21T12:57:26;99967.53;;;25.76;48.62
26112;BME280;13829;48.990;8.346;2023-05-21T13:00:01;99972.31;;;25.58;47.73